createdAt,value
2023-07-23T00:00:12.627Z,2.60
2023-07-23T00:01:17.226Z,3.00
2023-07-23T00:02:18.878Z,2.78
2023-07-23T00:03:20.488Z,2.60
2023-07-23T00:04:22.127Z,3.17
2023-07-23T00:05:27.662Z,2.63
2023-07-23T00:06:29.271Z,2.67
2023-07-23T00:07:31.345Z,2.92
2023-07-23T00:08:33.011Z,2.95
2023-07-23T00:09:34.784Z,3.13
2023-07-23T00:10:36.386Z,2.95
2023-07-23T00:11:38.018Z,2.92
2023-07-23T00:12:39.734Z,3.00
2023-07-23T00:13:41.299Z,2.97
2023-07-23T00:14:42.893Z,2.80
2023-07-23T00:15:44.560Z,2.90
2023-07-23T00:16:46.477Z,2.88
2023-07-23T00:17:49.075Z,3.10
2023-07-23T00:18:50.803Z,3.00
2023-07-23T00:19:52.413Z,3.05
2023-07-23T00:20:54.025Z,3.20
2023-07-23T00:21:55.570Z,3.17
2023-07-23T00:22:57.142Z,3.35
2023-07-23T00:23:58.704Z,3.15
2023-07-23T00:25:00.418Z,3.45
2023-07-23T00:26:01.988Z,3.10
2023-07-23T00:27:03.931Z,3.22
2023-07-23T00:28:05.577Z,3.17
2023-07-23T00:29:07.251Z,3.70
2023-07-23T00:30:09.412Z,3.40
2023-07-23T00:31:11.211Z,3.35
2023-07-23T00:32:12.863Z,3.15
2023-07-23T00:33:14.550Z,3.10
2023-07-23T00:34:16.134Z,3.15
2023-07-23T00:35:21.375Z,3.45
2023-07-23T00:36:23.100Z,3.70
2023-07-23T00:37:24.852Z,3.35
2023-07-23T00:38:26.530Z,3.63
2023-07-23T00:39:29.998Z,3.55
2023-07-23T00:40:31.607Z,3.33
2023-07-23T00:41:33.361Z,4.07
2023-07-23T00:42:35.226Z,3.97
2023-07-23T00:43:36.807Z,3.50
2023-07-23T00:44:38.641Z,3.75
2023-07-23T00:45:40.532Z,3.30
2023-07-23T00:46:42.298Z,3.47
2023-07-23T00:47:44.344Z,3.42
2023-07-23T00:48:45.988Z,3.92
2023-07-23T00:49:47.623Z,3.08
2023-07-23T00:50:49.288Z,3.05
2023-07-23T00:51:51.767Z,3.50
2023-07-23T00:52:53.557Z,3.42
2023-07-23T00:53:55.135Z,3.42
2023-07-23T00:54:56.786Z,3.28
2023-07-23T00:56:00.034Z,3.40
2023-07-23T00:57:03.710Z,3.83
2023-07-23T00:58:05.379Z,3.88
2023-07-23T00:59:08.239Z,3.60
2023-07-23T01:00:16.115Z,3.53
2023-07-23T01:01:19.255Z,3.20
2023-07-23T01:02:20.811Z,3.30
2023-07-23T01:03:22.446Z,3.10
2023-07-23T01:04:24.699Z,3.10
2023-07-23T01:05:27.173Z,3.45
2023-07-23T01:07:31.226Z,2.97
2023-07-23T01:08:35.952Z,3.30
2023-07-23T01:09:38.164Z,3.00
2023-07-23T01:11:42.291Z,3.22
2023-07-23T01:12:44.152Z,3.00
2023-07-23T01:13:46.032Z,3.63
2023-07-23T01:14:47.702Z,3.28
2023-07-23T01:15:49.364Z,3.40
2023-07-23T01:16:51.067Z,3.45
2023-07-23T01:17:53.164Z,3.10
2023-07-23T01:18:55.251Z,3.28
2023-07-23T01:20:22.485Z,3.38
2023-07-23T01:21:24.195Z,3.17
2023-07-23T01:22:25.777Z,3.28
2023-07-23T01:23:27.349Z,3.08
2023-07-23T01:24:29.748Z,3.50
2023-07-23T01:25:31.481Z,2.90
2023-07-23T01:26:33.229Z,2.97
2023-07-23T01:27:34.852Z,3.55
2023-07-23T01:28:37.129Z,3.05
2023-07-23T01:30:40.809Z,3.20
2023-07-23T01:31:42.402Z,3.15
2023-07-23T01:32:44.161Z,3.30
2023-07-23T01:33:46.289Z,3.17
2023-07-23T01:34:48.490Z,3.17
2023-07-23T01:35:55.816Z,3.50
2023-07-23T01:36:57.414Z,3.03
2023-07-23T01:37:59.588Z,3.20
2023-07-23T01:39:01.206Z,3.22
2023-07-23T01:40:03.678Z,3.40
2023-07-23T01:41:05.422Z,3.00
2023-07-23T01:42:12.727Z,3.53
2023-07-23T01:43:14.739Z,3.22
2023-07-23T01:44:16.421Z,3.20
2023-07-23T01:45:18.228Z,3.28
2023-07-23T01:46:19.794Z,3.28
2023-07-23T01:47:21.483Z,3.20
2023-07-23T01:48:23.857Z,3.25
2023-07-23T01:49:25.402Z,3.25
2023-07-23T01:50:27.062Z,3.30
2023-07-23T01:51:28.901Z,3.70
2023-07-23T01:52:30.730Z,3.70
2023-07-23T01:53:32.249Z,3.20
2023-07-23T01:54:33.905Z,3.22
2023-07-23T01:55:35.741Z,3.70
2023-07-23T01:56:37.299Z,3.30
2023-07-23T01:57:38.914Z,3.22
2023-07-23T01:58:40.522Z,3.90
2023-07-23T01:59:42.161Z,3.72
2023-07-23T02:00:43.841Z,3.45
2023-07-23T02:01:45.409Z,3.20
2023-07-23T02:02:47.077Z,3.00
2023-07-23T02:03:48.726Z,3.30
2023-07-23T02:04:50.441Z,3.35
2023-07-23T02:06:00.468Z,3.08
2023-07-23T02:07:02.448Z,3.50
2023-07-23T02:08:04.235Z,3.13
2023-07-23T02:09:05.805Z,3.42
2023-07-23T02:10:08.121Z,3.40
2023-07-23T02:11:09.749Z,2.92
2023-07-23T02:12:11.448Z,3.53
2023-07-23T02:13:13.040Z,3.25
2023-07-23T02:14:14.651Z,3.50
2023-07-23T02:15:16.583Z,3.17
2023-07-23T02:16:19.211Z,3.28
2023-07-23T02:17:20.928Z,3.83
2023-07-23T02:18:22.716Z,3.60
2023-07-23T02:19:24.586Z,3.50
2023-07-23T02:20:26.252Z,3.63
2023-07-23T02:21:28.214Z,3.40
2023-07-23T02:22:29.926Z,3.50
2023-07-23T02:23:31.470Z,3.30
2023-07-23T02:24:33.084Z,3.40
2023-07-23T02:25:38.465Z,3.50
2023-07-23T02:26:40.055Z,3.42
2023-07-23T02:27:41.698Z,3.53
2023-07-23T02:28:44.993Z,3.53
2023-07-23T02:29:46.820Z,3.30
2023-07-23T02:30:56.472Z,3.20
2023-07-23T02:31:58.133Z,3.63
2023-07-23T02:32:59.767Z,3.00
2023-07-23T02:34:01.414Z,3.40
2023-07-23T02:35:03.370Z,3.60
2023-07-23T02:36:05.252Z,3.22
2023-07-23T02:37:06.852Z,3.42
2023-07-23T02:38:08.459Z,3.47
2023-07-23T02:39:10.049Z,3.60
2023-07-23T02:40:12.323Z,3.50
2023-07-23T02:41:13.982Z,3.50
2023-07-23T02:42:15.558Z,3.25
2023-07-23T02:43:17.109Z,3.42
2023-07-23T02:44:18.709Z,3.38
2023-07-23T02:45:20.358Z,3.70
2023-07-23T02:46:22.028Z,3.60
2023-07-23T02:47:23.658Z,3.33
2023-07-23T02:48:25.276Z,3.60
2023-07-23T02:49:26.890Z,3.65
2023-07-23T02:50:28.624Z,3.40
2023-07-23T02:51:30.496Z,3.25
2023-07-23T02:52:32.364Z,3.08
2023-07-23T02:53:34.035Z,3.45
2023-07-23T02:54:35.629Z,3.30
2023-07-23T02:55:37.434Z,3.50
2023-07-23T02:56:39.047Z,3.22
2023-07-23T02:57:40.671Z,3.10
2023-07-23T02:58:42.428Z,3.17
2023-07-23T02:59:44.059Z,3.63
2023-07-23T03:00:45.950Z,3.53
2023-07-23T03:01:47.744Z,3.47
2023-07-23T03:02:50.150Z,3.13
2023-07-23T03:03:52.097Z,3.10
2023-07-23T03:04:53.735Z,3.83
2023-07-23T03:05:55.337Z,3.30
2023-07-23T03:06:57.091Z,3.22
2023-07-23T03:07:58.812Z,3.10
2023-07-23T03:09:00.465Z,3.00
2023-07-23T03:10:02.186Z,3.58
2023-07-23T03:11:06.420Z,4.03
2023-07-23T03:12:11.085Z,3.00
2023-07-23T03:13:13.018Z,2.92
2023-07-23T03:14:14.649Z,3.13
2023-07-23T03:15:16.251Z,2.97
2023-07-23T03:16:18.753Z,3.40
2023-07-23T03:17:20.351Z,3.00
2023-07-23T03:18:21.947Z,2.97
2023-07-23T03:19:23.546Z,3.08
2023-07-23T03:20:25.137Z,3.35
2023-07-23T03:21:26.960Z,2.90
2023-07-23T03:22:28.789Z,3.28
2023-07-23T03:23:30.406Z,2.90
2023-07-23T03:24:32.096Z,3.22
2023-07-23T03:25:33.769Z,3.70
2023-07-23T03:26:35.358Z,3.00
2023-07-23T03:27:38.124Z,2.90
2023-07-23T03:28:40.789Z,3.33
2023-07-23T03:29:42.369Z,3.03
2023-07-23T03:30:44.101Z,2.92
2023-07-23T03:31:45.710Z,3.53
2023-07-23T03:32:47.358Z,3.10
2023-07-23T03:33:48.975Z,2.78
2023-07-23T03:34:50.594Z,2.90
2023-07-23T03:35:52.245Z,3.28
2023-07-23T03:36:53.831Z,3.50
2023-07-23T03:37:55.703Z,3.17
2023-07-23T03:38:57.317Z,2.90
2023-07-23T03:39:58.952Z,3.42
2023-07-23T03:41:00.554Z,3.13
2023-07-23T03:42:02.175Z,3.22
2023-07-23T03:43:04.512Z,3.20
2023-07-23T03:44:06.073Z,3.00
2023-07-23T03:45:08.123Z,3.10
2023-07-23T03:46:09.795Z,3.05
2023-07-23T03:47:14.463Z,3.42
2023-07-23T03:48:16.050Z,3.13
2023-07-23T03:49:17.833Z,3.35
2023-07-23T03:50:20.099Z,3.45
2023-07-23T03:51:22.312Z,2.95
2023-07-23T03:52:24.096Z,2.88
2023-07-23T03:53:25.700Z,3.03
2023-07-23T03:54:27.328Z,3.00
2023-07-23T03:55:28.945Z,3.10
2023-07-23T03:56:30.785Z,2.80
2023-07-23T03:57:33.611Z,3.17
2023-07-23T03:58:37.895Z,3.05
2023-07-23T03:59:41.175Z,3.10
2023-07-23T04:00:43.021Z,2.80
2023-07-23T04:01:44.696Z,2.78
2023-07-23T04:02:46.613Z,3.00
2023-07-23T04:03:48.257Z,2.70
2023-07-23T04:04:49.856Z,3.00
2023-07-23T04:05:51.482Z,2.88
2023-07-23T04:06:53.084Z,3.05
2023-07-23T04:07:54.685Z,2.97
2023-07-23T04:08:56.351Z,3.08
2023-07-23T04:09:58.075Z,3.20
2023-07-23T04:10:59.660Z,3.00
2023-07-23T04:12:01.716Z,2.88
2023-07-23T04:13:04.587Z,3.00
2023-07-23T04:14:08.106Z,2.95
2023-07-23T04:15:09.975Z,3.22
2023-07-23T04:16:12.191Z,2.78
2023-07-23T04:17:17.740Z,2.80
2023-07-23T04:18:19.845Z,2.95
2023-07-23T04:19:21.666Z,2.97
2023-07-23T04:20:23.572Z,2.95
2023-07-23T04:21:27.001Z,2.78
2023-07-23T04:22:28.800Z,3.15
2023-07-23T04:23:30.379Z,3.30
2023-07-23T04:24:32.065Z,3.13
2023-07-23T04:25:33.680Z,3.03
2023-07-23T04:26:35.444Z,2.92
2023-07-23T04:27:37.049Z,2.88
2023-07-23T04:28:38.646Z,2.95
2023-07-23T04:29:40.234Z,3.08
2023-07-23T04:30:41.850Z,3.65
2023-07-23T04:31:43.554Z,3.00
2023-07-23T04:32:45.260Z,2.72
2023-07-23T04:33:47.092Z,2.90
2023-07-23T04:34:49.262Z,3.30
2023-07-23T04:35:51.232Z,3.50
2023-07-23T04:36:53.537Z,3.03
2023-07-23T04:37:55.196Z,2.92
2023-07-23T04:38:56.824Z,2.72
2023-07-23T04:39:58.525Z,3.20
2023-07-23T04:41:00.165Z,3.17
2023-07-23T04:42:01.757Z,3.15
2023-07-23T04:43:04.430Z,3.03
2023-07-23T04:44:06.106Z,3.08
2023-07-23T04:45:08.195Z,2.97
2023-07-23T04:46:10.350Z,3.42
2023-07-23T04:47:12.038Z,3.00
2023-07-23T04:48:15.178Z,3.60
2023-07-23T04:49:16.903Z,3.22
2023-07-23T04:50:18.570Z,2.95
2023-07-23T04:51:20.189Z,3.28
2023-07-23T04:52:21.808Z,3.35
2023-07-23T04:53:24.818Z,3.38
2023-07-23T04:54:26.414Z,3.00
2023-07-23T04:55:28.066Z,3.42
2023-07-23T04:56:29.624Z,3.03
2023-07-23T04:57:31.285Z,3.38
2023-07-23T04:58:33.706Z,3.03
2023-07-23T04:59:35.281Z,3.28
2023-07-23T05:00:36.885Z,3.03
2023-07-23T05:01:38.627Z,2.92
2023-07-23T05:02:40.354Z,4.15
2023-07-23T05:03:42.026Z,3.10
2023-07-23T05:04:43.651Z,3.40
2023-07-23T05:05:50.660Z,3.45
2023-07-23T05:06:52.279Z,3.20
2023-07-23T05:07:53.891Z,3.38
2023-07-23T05:08:55.468Z,3.83
2023-07-23T05:09:57.077Z,3.55
2023-07-23T05:11:03.651Z,3.70
2023-07-23T05:12:05.687Z,2.85
2023-07-23T05:13:07.492Z,3.42
2023-07-23T05:14:09.103Z,3.50
2023-07-23T05:15:14.424Z,3.30
2023-07-23T05:16:16.136Z,3.45
2023-07-23T05:17:17.824Z,3.80
2023-07-23T05:18:20.053Z,3.75
2023-07-23T05:20:23.231Z,4.10
2023-07-23T05:21:24.845Z,3.47
2023-07-23T05:22:26.503Z,3.30
2023-07-23T05:23:28.083Z,3.58
2023-07-23T05:24:29.635Z,3.50
2023-07-23T05:25:31.326Z,3.53
2023-07-23T05:26:32.929Z,3.88
2023-07-23T05:27:34.923Z,3.88
2023-07-23T05:28:36.543Z,3.42
2023-07-23T05:29:38.142Z,3.30
2023-07-23T05:30:40.286Z,3.53
2023-07-23T05:31:41.977Z,3.58
2023-07-23T05:32:44.592Z,3.55
2023-07-23T05:33:46.332Z,3.33
2023-07-23T05:34:47.950Z,3.47
2023-07-23T05:35:49.533Z,3.88
2023-07-23T05:36:51.150Z,3.53
2023-07-23T05:37:52.783Z,2.97
2023-07-23T05:38:54.393Z,3.55
2023-07-23T05:39:56.163Z,3.55
2023-07-23T05:40:58.769Z,4.38
2023-07-23T05:42:00.339Z,3.72
2023-07-23T05:43:01.936Z,3.47
2023-07-23T05:44:03.580Z,4.15
2023-07-23T05:45:05.788Z,3.67
2023-07-23T05:46:07.456Z,5.13
2023-07-23T05:47:09.069Z,4.45
2023-07-23T05:48:10.723Z,4.22
2023-07-23T05:49:12.362Z,4.50
2023-07-23T05:50:13.957Z,4.03
2023-07-23T05:51:15.556Z,4.10
2023-07-23T05:52:17.152Z,5.15
2023-07-23T05:53:18.880Z,4.30
2023-07-23T05:54:20.462Z,4.72
2023-07-23T05:55:22.073Z,3.60
2023-07-23T05:56:23.712Z,4.60
2023-07-23T05:57:25.286Z,4.78
2023-07-23T05:58:28.451Z,4.35
2023-07-23T05:59:30.301Z,4.13
2023-07-23T06:00:31.913Z,4.43
2023-07-23T06:01:33.855Z,4.93
2023-07-23T06:02:35.697Z,4.20
2023-07-23T06:03:52.036Z,4.55
2023-07-23T06:04:55.258Z,4.65
2023-07-23T06:05:56.870Z,4.05
2023-07-23T06:06:58.416Z,4.90
2023-07-23T06:08:00.081Z,5.10
2023-07-23T06:09:01.712Z,3.65
2023-07-23T06:10:04.231Z,5.82
2023-07-23T06:11:05.836Z,4.65
2023-07-23T06:12:07.629Z,4.85
2023-07-23T06:13:10.450Z,4.88
2023-07-23T06:14:12.044Z,4.00
2023-07-23T06:15:13.730Z,4.68
2023-07-23T06:16:15.430Z,4.68
2023-07-23T06:17:17.179Z,4.75
2023-07-23T06:18:18.797Z,4.43
2023-07-23T06:19:20.550Z,6.07
2023-07-23T06:20:22.187Z,5.40
2023-07-23T06:21:23.857Z,5.53
2023-07-23T06:22:25.556Z,4.88
2023-07-23T06:23:27.144Z,5.55
2023-07-23T06:24:28.844Z,5.43
2023-07-23T06:25:30.508Z,4.53
2023-07-23T06:26:32.082Z,4.65
2023-07-23T06:27:33.740Z,4.45
2023-07-23T06:28:35.344Z,4.57
2023-07-23T06:29:36.914Z,4.00
2023-07-23T06:30:38.533Z,3.25
2023-07-23T06:31:40.157Z,4.53
2023-07-23T06:32:42.509Z,4.90
2023-07-23T06:33:44.188Z,4.30
2023-07-23T06:34:45.834Z,4.65
2023-07-23T06:35:48.064Z,4.72
2023-07-23T06:36:49.672Z,5.15
2023-07-23T06:37:51.358Z,5.10
2023-07-23T06:38:53.022Z,5.20
2023-07-23T06:39:54.732Z,5.30
2023-07-23T06:40:57.446Z,6.32
2023-07-23T06:41:59.054Z,5.68
2023-07-23T06:43:00.616Z,4.43
2023-07-23T06:44:02.286Z,4.10
2023-07-23T06:45:04.332Z,5.05
2023-07-23T06:46:05.954Z,4.32
2023-07-23T06:47:07.934Z,5.55
2023-07-23T06:48:09.570Z,3.92
2023-07-23T06:49:13.290Z,4.60
2023-07-23T06:50:19.362Z,4.53
2023-07-23T06:51:20.986Z,5.20
2023-07-23T06:52:22.750Z,3.42
2023-07-23T06:53:24.399Z,5.22
2023-07-23T06:54:26.067Z,5.00
2023-07-23T06:55:27.768Z,5.53
2023-07-23T06:56:29.397Z,4.05
2023-07-23T06:57:31.058Z,5.53
2023-07-23T06:58:37.358Z,5.63
2023-07-23T06:59:38.961Z,6.32
2023-07-23T07:00:40.573Z,4.95
2023-07-23T07:01:42.286Z,4.65
2023-07-23T07:02:44.006Z,5.22
2023-07-23T07:03:45.722Z,3.65
2023-07-23T07:04:47.470Z,5.00
2023-07-23T07:05:49.092Z,5.43
2023-07-23T07:06:50.680Z,4.63
2023-07-23T07:07:52.255Z,5.53
2023-07-23T07:08:53.851Z,4.15
2023-07-23T07:09:55.482Z,5.50
2023-07-23T07:11:02.113Z,5.18
2023-07-23T07:12:03.949Z,5.75
2023-07-23T07:13:05.512Z,5.80
2023-07-23T07:14:07.149Z,6.35
2023-07-23T07:15:09.081Z,6.35
2023-07-23T07:16:11.537Z,5.78
2023-07-23T07:17:13.203Z,5.95
2023-07-23T07:18:14.881Z,6.25
2023-07-23T07:19:18.000Z,5.93
2023-07-23T07:20:19.604Z,7.00
2023-07-23T07:21:21.237Z,6.07
2023-07-23T07:22:22.820Z,5.18
2023-07-23T07:23:25.733Z,6.65
2023-07-23T07:24:27.400Z,5.72
2023-07-23T07:25:29.069Z,5.47
2023-07-23T07:26:30.653Z,5.85
2023-07-23T07:27:32.232Z,6.32
2023-07-23T07:28:34.452Z,6.63
2023-07-23T07:29:39.690Z,6.43
2023-07-23T07:30:41.523Z,6.88
2023-07-23T07:31:43.166Z,6.65
2023-07-23T07:32:44.825Z,6.43
2023-07-23T07:33:46.430Z,5.97
2023-07-23T07:34:48.033Z,3.70
2023-07-23T07:35:50.817Z,5.75
2023-07-23T07:36:53.328Z,5.78
2023-07-23T07:37:54.873Z,5.28
2023-07-23T07:38:56.428Z,5.97
2023-07-23T07:39:58.096Z,5.72
2023-07-23T07:40:59.841Z,6.20
2023-07-23T07:42:01.456Z,7.20
2023-07-23T07:43:03.051Z,6.55
2023-07-23T07:44:04.711Z,4.82
2023-07-23T07:45:06.992Z,6.78
2023-07-23T07:46:09.593Z,4.28
2023-07-23T07:47:11.533Z,5.63
2023-07-23T07:48:13.125Z,5.05
2023-07-23T07:49:15.486Z,5.22
2023-07-23T07:50:17.095Z,5.85
2023-07-23T07:51:18.730Z,7.85
2023-07-23T07:52:20.335Z,6.10
2023-07-23T07:53:21.899Z,7.82
2023-07-23T07:54:23.515Z,7.15
2023-07-23T07:55:25.102Z,6.15
2023-07-23T07:56:26.984Z,5.72
2023-07-23T07:57:28.900Z,5.97
2023-07-23T07:58:31.425Z,6.03
2023-07-23T07:59:33.289Z,6.22
2023-07-23T08:00:35.214Z,7.10
2023-07-23T08:01:37.018Z,5.82
2023-07-23T08:02:39.371Z,6.50
2023-07-23T08:03:41.491Z,5.45
2023-07-23T08:05:45.324Z,7.57
2023-07-23T08:06:47.145Z,7.13
2023-07-23T08:07:49.013Z,6.05
2023-07-23T08:08:51.793Z,7.10
2023-07-23T08:09:59.013Z,7.55
2023-07-23T08:11:02.232Z,7.65
2023-07-23T08:12:06.630Z,7.10
2023-07-23T08:13:10.621Z,6.93
2023-07-23T08:14:13.820Z,6.35
2023-07-23T08:15:17.116Z,7.47
2023-07-23T08:16:19.018Z,8.43
2023-07-23T08:17:21.543Z,9.35
2023-07-23T08:18:24.614Z,5.32
2023-07-23T08:19:26.454Z,6.82
2023-07-23T08:20:28.880Z,7.03
2023-07-23T08:21:31.097Z,8.50
2023-07-23T08:22:32.944Z,7.60
2023-07-23T08:23:36.988Z,7.85
2023-07-23T08:24:38.753Z,5.38
2023-07-23T08:25:41.233Z,6.60
2023-07-23T08:26:43.873Z,7.22
2023-07-23T08:27:46.816Z,8.95
2023-07-23T08:28:52.880Z,7.80
2023-07-23T08:29:54.624Z,7.32
2023-07-23T08:30:57.659Z,5.65
2023-07-23T08:31:59.876Z,5.82
2023-07-23T08:33:02.369Z,6.50
2023-07-23T08:34:04.474Z,7.47
2023-07-23T08:35:06.899Z,7.03
2023-07-23T08:36:09.136Z,6.32
2023-07-23T08:37:11.943Z,7.45
2023-07-23T08:38:13.819Z,7.40
2023-07-23T08:39:15.697Z,6.28
2023-07-23T08:40:20.110Z,6.82
2023-07-23T08:41:25.452Z,7.47
2023-07-23T08:42:56.209Z,6.70
2023-07-23T08:44:29.870Z,7.22
2023-07-23T08:45:31.598Z,7.30
2023-07-23T08:46:33.385Z,10.98
2023-07-23T08:47:38.983Z,8.70
2023-07-23T08:48:55.701Z,7.85
2023-07-23T08:50:01.381Z,8.35
2023-07-23T08:51:04.785Z,6.05
2023-07-23T08:52:07.115Z,5.20
2023-07-23T08:53:10.615Z,6.35
2023-07-23T08:54:13.599Z,5.57
2023-07-23T08:55:18.787Z,7.22
2023-07-23T08:56:20.485Z,7.05
2023-07-23T08:57:22.133Z,6.45
2023-07-23T08:58:23.706Z,6.40
2023-07-23T08:59:27.581Z,4.43
2023-07-23T09:00:29.813Z,5.75
2023-07-23T09:01:36.728Z,6.60
2023-07-23T09:02:40.245Z,6.35
2023-07-23T09:03:41.928Z,6.45
2023-07-23T09:04:43.578Z,6.10
2023-07-23T09:05:45.203Z,4.63
2023-07-23T09:06:47.546Z,6.97
2023-07-23T09:07:49.362Z,5.18
2023-07-23T09:08:52.877Z,8.10
2023-07-23T09:09:54.468Z,6.10
2023-07-23T09:10:56.085Z,6.43
2023-07-23T09:11:57.719Z,7.18
2023-07-23T09:12:59.315Z,5.53
2023-07-23T09:14:08.032Z,6.90
2023-07-23T09:15:10.514Z,7.40
2023-07-23T09:16:12.101Z,4.35
2023-07-23T09:17:18.451Z,7.05
2023-07-23T09:18:20.937Z,8.38
2023-07-23T09:19:24.519Z,7.25
2023-07-23T09:20:26.107Z,7.43
2023-07-23T09:21:28.743Z,7.93
2023-07-23T09:22:33.695Z,6.90
2023-07-23T09:23:35.338Z,7.38
2023-07-23T09:24:37.025Z,7.30
2023-07-23T09:25:40.139Z,8.15
2023-07-23T09:26:42.386Z,7.18
2023-07-23T09:27:44.253Z,7.80
2023-07-23T09:28:45.957Z,7.70
2023-07-23T09:29:48.704Z,8.82
2023-07-23T09:30:57.986Z,7.85
2023-07-23T09:31:59.614Z,7.32
2023-07-23T09:33:03.382Z,7.43
2023-07-23T09:34:05.375Z,8.10
2023-07-23T09:35:07.388Z,8.93
2023-07-23T09:36:09.039Z,6.18
2023-07-23T09:37:11.616Z,5.95
2023-07-23T09:38:15.866Z,8.60
2023-07-23T09:39:19.428Z,7.00
2023-07-23T09:40:21.001Z,6.88
2023-07-23T09:41:22.650Z,6.97
2023-07-23T09:42:24.630Z,6.75
2023-07-23T09:43:26.873Z,6.50
2023-07-23T09:44:28.518Z,7.80
2023-07-23T09:45:31.678Z,8.07
2023-07-23T09:46:34.011Z,6.88
2023-07-23T09:47:36.934Z,6.90
2023-07-23T09:48:50.796Z,4.82
2023-07-23T09:49:55.441Z,8.02
2023-07-23T09:51:01.574Z,6.85
2023-07-23T09:52:07.894Z,5.47
2023-07-23T09:53:10.126Z,7.30
2023-07-23T09:54:11.759Z,8.73
2023-07-23T09:55:13.725Z,8.98
2023-07-23T09:56:16.670Z,11.07
2023-07-23T09:57:20.574Z,6.53
2023-07-23T09:58:22.748Z,7.55
2023-07-23T09:59:25.221Z,7.65
2023-07-23T10:00:26.892Z,8.02
2023-07-23T10:01:29.852Z,7.50
2023-07-23T10:02:34.947Z,7.60
2023-07-23T10:03:37.025Z,6.28
2023-07-23T10:04:38.729Z,4.50
2023-07-23T10:05:40.539Z,6.13
2023-07-23T10:06:42.223Z,6.45
2023-07-23T10:07:45.785Z,6.90
2023-07-23T10:08:48.342Z,7.20
2023-07-23T10:09:51.306Z,6.20
2023-07-23T10:10:52.942Z,6.80
2023-07-23T10:11:54.600Z,7.30
2023-07-23T10:12:56.210Z,8.68
2023-07-23T10:13:59.582Z,7.07
2023-07-23T10:15:03.966Z,5.97
2023-07-23T10:16:10.083Z,8.77
2023-07-23T10:17:11.886Z,7.57
2023-07-23T10:18:13.951Z,7.50
2023-07-23T10:20:19.130Z,7.03
2023-07-23T10:21:20.977Z,5.88
2023-07-23T10:22:23.601Z,7.78
2023-07-23T10:23:25.364Z,6.70
2023-07-23T10:24:40.571Z,6.80
2023-07-23T10:25:42.344Z,7.30
2023-07-23T10:26:47.633Z,6.63
2023-07-23T10:27:57.674Z,6.65
2023-07-23T10:29:08.547Z,10.60
2023-07-23T10:30:21.117Z,7.70
2023-07-23T10:31:28.207Z,5.95
2023-07-23T10:32:30.219Z,5.15
2023-07-23T10:33:32.057Z,7.32
2023-07-23T10:34:34.588Z,8.35
2023-07-23T10:36:08.145Z,6.53
2023-07-23T10:37:22.523Z,7.05
2023-07-23T10:38:30.079Z,6.00
2023-07-23T10:39:40.117Z,20.35
2023-07-23T10:40:45.350Z,10.98
2023-07-23T10:41:49.261Z,11.35
2023-07-23T10:42:50.842Z,7.70
2023-07-23T10:43:53.623Z,7.47
2023-07-23T10:45:20.072Z,6.10
2023-07-23T10:46:21.839Z,7.20
2023-07-23T10:47:31.722Z,6.45
2023-07-23T10:48:50.417Z,8.57
2023-07-23T10:50:14.267Z,30.25
2023-07-23T10:51:23.473Z,7.43
2023-07-23T10:52:25.130Z,6.07
2023-07-23T10:53:27.775Z,8.45
2023-07-23T10:54:29.444Z,7.38
2023-07-23T10:55:35.190Z,5.60
2023-07-23T10:56:37.724Z,5.78
2023-07-23T10:57:42.289Z,6.32
2023-07-23T10:58:44.005Z,17.83
2023-07-23T10:59:53.408Z,39.58
2023-07-23T11:00:57.094Z,9.10
2023-07-23T11:01:58.834Z,10.43
2023-07-23T11:03:00.734Z,5.95
2023-07-23T11:04:11.235Z,9.07
2023-07-23T11:05:12.842Z,6.00
2023-07-23T11:06:33.602Z,7.28
2023-07-23T11:07:35.216Z,6.13
2023-07-23T11:08:48.961Z,6.80
2023-07-23T11:09:50.589Z,5.53
2023-07-23T11:11:01.078Z,12.13
2023-07-23T11:12:06.600Z,7.70
2023-07-23T11:13:09.675Z,7.38
2023-07-23T11:14:27.923Z,8.15
2023-07-23T11:15:29.851Z,9.88
2023-07-23T11:16:36.006Z,5.97
2023-07-23T11:17:37.860Z,7.15
2023-07-23T11:18:40.410Z,6.15
2023-07-23T11:19:47.106Z,5.97
2023-07-23T11:20:50.809Z,5.88
2023-07-23T11:21:59.829Z,6.10
2023-07-23T11:23:01.751Z,5.78
2023-07-23T11:24:03.406Z,6.13
2023-07-23T11:25:05.454Z,6.20
2023-07-23T11:27:11.226Z,5.82
2023-07-23T11:28:12.928Z,8.75
2023-07-23T11:29:15.006Z,5.30
2023-07-23T11:31:18.599Z,5.65
2023-07-23T11:32:20.283Z,5.10
2023-07-23T11:33:23.295Z,4.68
2023-07-23T11:34:25.494Z,5.78
2023-07-23T11:36:29.657Z,5.47
2023-07-23T11:37:31.630Z,4.85
2023-07-23T11:38:33.898Z,3.83
2023-07-23T11:39:35.607Z,6.70
2023-07-23T11:40:37.559Z,5.25
2023-07-23T11:41:42.934Z,5.45
2023-07-23T11:42:44.799Z,5.75
2023-07-23T11:43:46.548Z,4.72
2023-07-23T11:45:02.085Z,6.78
2023-07-23T11:46:03.870Z,5.85
2023-07-23T11:47:06.108Z,5.40
2023-07-23T11:49:11.475Z,4.90
2023-07-23T11:50:13.186Z,5.20
2023-07-23T11:51:14.867Z,4.32
2023-07-23T11:52:25.469Z,5.80
2023-07-23T11:53:34.606Z,5.47
2023-07-23T11:54:36.267Z,5.03
2023-07-23T11:55:37.994Z,5.75
2023-07-23T11:56:41.694Z,5.07
2023-07-23T11:57:43.312Z,5.72
2023-07-23T11:58:45.018Z,5.38
2023-07-23T11:59:46.639Z,6.10
2023-07-23T12:00:50.527Z,5.10
2023-07-23T12:01:56.223Z,5.78
2023-07-23T12:02:58.980Z,6.75
2023-07-23T12:04:02.001Z,5.25
2023-07-23T12:05:04.157Z,5.72
2023-07-23T12:07:08.013Z,4.70
2023-07-23T12:08:09.797Z,5.63
2023-07-23T12:09:12.860Z,5.97
2023-07-23T12:10:15.905Z,5.50
2023-07-23T12:11:17.639Z,4.72
2023-07-23T12:12:23.023Z,4.93
2023-07-23T12:13:26.993Z,5.63
2023-07-23T12:14:28.650Z,5.80
2023-07-23T12:15:30.268Z,5.75
2023-07-23T12:16:43.488Z,5.03
2023-07-23T12:17:46.022Z,5.00
2023-07-23T12:18:49.889Z,4.47
2023-07-23T12:19:52.028Z,4.93
2023-07-23T12:21:00.820Z,4.85
2023-07-23T12:22:02.430Z,5.30
2023-07-23T12:23:04.053Z,4.43
2023-07-23T12:24:27.948Z,5.53
2023-07-23T12:25:29.735Z,5.20
2023-07-23T12:26:31.395Z,5.32
2023-07-23T12:27:33.075Z,5.68
2023-07-23T12:28:34.693Z,5.72
2023-07-23T12:29:41.990Z,4.85
2023-07-23T12:30:43.612Z,5.55
2023-07-23T12:31:47.341Z,5.10
2023-07-23T12:32:49.205Z,4.95
2023-07-23T12:33:50.925Z,5.32
2023-07-23T12:34:52.596Z,5.25
2023-07-23T12:35:54.291Z,5.07
2023-07-23T12:36:55.912Z,5.75
2023-07-23T12:37:57.616Z,5.15
2023-07-23T12:38:59.252Z,5.22
2023-07-23T12:40:01.281Z,5.38
2023-07-23T12:41:04.012Z,5.80
2023-07-23T12:42:05.920Z,5.88
2023-07-23T12:43:07.716Z,5.55
2023-07-23T12:44:10.683Z,5.50
2023-07-23T12:45:12.487Z,5.28
2023-07-23T12:46:15.508Z,5.15
2023-07-23T12:47:17.190Z,5.75
2023-07-23T12:48:18.840Z,5.60
2023-07-23T12:49:20.415Z,6.47
2023-07-23T12:50:22.005Z,6.55
2023-07-23T12:51:24.151Z,6.70
2023-07-23T12:52:26.230Z,6.45
2023-07-23T12:53:27.848Z,6.57
2023-07-23T12:54:29.482Z,6.20
2023-07-23T12:55:31.145Z,6.07
2023-07-23T12:56:32.902Z,5.85
2023-07-23T12:57:34.500Z,5.72
2023-07-23T12:58:36.097Z,5.82
2023-07-23T12:59:37.681Z,5.85
2023-07-23T13:00:39.363Z,6.63
2023-07-23T13:01:42.396Z,5.80
2023-07-23T13:02:44.275Z,6.35
2023-07-23T13:03:45.988Z,6.15
2023-07-23T13:04:48.551Z,6.10
2023-07-23T13:05:50.160Z,5.57
2023-07-23T13:06:51.787Z,6.85
2023-07-23T13:07:53.454Z,6.78
2023-07-23T13:08:55.047Z,6.57
2023-07-23T13:09:56.598Z,6.72
2023-07-23T13:10:58.155Z,7.05
2023-07-23T13:11:59.745Z,6.65
2023-07-23T13:13:01.358Z,6.63
2023-07-23T13:14:02.972Z,7.05
2023-07-23T13:15:06.648Z,7.00
2023-07-23T13:16:09.902Z,6.72
2023-07-23T13:17:11.633Z,6.88
2023-07-23T13:18:13.265Z,6.32
2023-07-23T13:19:14.908Z,7.03
2023-07-23T13:20:16.571Z,6.85
2023-07-23T13:21:18.251Z,6.63
2023-07-23T13:22:19.879Z,5.93
2023-07-23T13:23:21.591Z,7.53
2023-07-23T13:24:23.228Z,6.68
2023-07-23T13:25:24.902Z,6.57
2023-07-23T13:26:26.634Z,6.20
2023-07-23T13:27:28.392Z,6.70
2023-07-23T13:28:30.049Z,6.50
2023-07-23T13:29:31.623Z,6.30
2023-07-23T13:30:33.268Z,6.95
2023-07-23T13:31:34.819Z,6.82
2023-07-23T13:32:36.499Z,7.05
2023-07-23T13:33:38.153Z,6.95
2023-07-23T13:34:39.847Z,7.32
2023-07-23T13:35:41.481Z,7.20
2023-07-23T13:36:43.065Z,6.22
2023-07-23T13:37:44.874Z,6.53
2023-07-23T13:38:46.506Z,7.10
2023-07-23T13:39:48.159Z,6.63
2023-07-23T13:40:50.152Z,7.38
2023-07-23T13:41:51.777Z,7.43
2023-07-23T13:42:53.461Z,6.05
2023-07-23T13:43:55.071Z,8.93
2023-07-23T13:44:56.714Z,7.38
2023-07-23T13:45:58.365Z,6.82
2023-07-23T13:47:00.001Z,7.35
2023-07-23T13:48:01.722Z,7.68
2023-07-23T13:49:03.396Z,7.10
2023-07-23T13:50:05.791Z,7.15
2023-07-23T13:51:07.431Z,7.70
2023-07-23T13:52:09.058Z,7.30
2023-07-23T13:53:10.656Z,8.23
2023-07-23T13:54:12.236Z,7.72
2023-07-23T13:55:13.969Z,7.55
2023-07-23T13:56:16.142Z,7.93
2023-07-23T13:58:19.318Z,7.57
2023-07-23T13:59:20.913Z,7.82
2023-07-23T14:00:22.527Z,6.85
2023-07-23T14:01:24.226Z,8.50
2023-07-23T14:02:26.404Z,8.07
2023-07-23T14:03:28.154Z,7.60
2023-07-23T14:04:29.819Z,7.13
2023-07-23T14:05:32.419Z,7.80
2023-07-23T14:06:34.263Z,8.13
2023-07-23T14:07:35.846Z,7.75